createdAt,value
2023-10-17T00:00:27.389Z,3.50
2023-10-17T00:01:27.308Z,3.40
2023-10-17T00:02:27.351Z,3.30
2023-10-17T00:03:27.384Z,3.60
2023-10-17T00:04:27.635Z,3.40
2023-10-17T00:05:27.342Z,3.50
2023-10-17T00:06:27.281Z,3.40
2023-10-17T00:07:27.212Z,3.70
2023-10-17T00:08:27.181Z,3.80
2023-10-17T00:09:27.286Z,3.90
2023-10-17T00:10:27.178Z,3.50
2023-10-17T00:11:27.182Z,3.60
2023-10-17T00:12:27.651Z,3.40
2023-10-17T00:13:27.136Z,3.40
2023-10-17T00:14:27.318Z,3.60
2023-10-17T00:15:27.216Z,3.30
2023-10-17T00:16:27.085Z,3.60
2023-10-17T00:17:27.138Z,3.40
2023-10-17T00:18:27.108Z,3.70
2023-10-17T00:19:27.087Z,4.00
2023-10-17T00:20:27.237Z,3.50
2023-10-17T00:21:27.041Z,3.50
2023-10-17T00:22:26.989Z,3.60
2023-10-17T00:23:27.035Z,3.50
2023-10-17T00:24:27.310Z,3.60
2023-10-17T00:25:27.000Z,4.00
2023-10-17T00:26:26.996Z,3.80
2023-10-17T00:27:26.997Z,3.40
2023-10-17T00:28:26.951Z,3.50
2023-10-17T00:29:26.925Z,3.60
2023-10-17T00:30:26.949Z,3.90
2023-10-17T00:31:26.949Z,3.40
2023-10-17T00:32:26.907Z,3.30
2023-10-17T00:33:26.906Z,3.90
2023-10-17T00:34:27.233Z,3.40
2023-10-17T00:35:26.895Z,3.20
2023-10-17T00:36:26.869Z,3.20
2023-10-17T00:37:26.839Z,3.50
2023-10-17T00:38:26.805Z,3.60
2023-10-17T00:39:26.847Z,3.40
2023-10-17T00:40:26.765Z,3.50
2023-10-17T00:41:26.814Z,3.70
2023-10-17T00:42:26.754Z,3.30
2023-10-17T00:43:26.799Z,3.90
2023-10-17T00:44:26.908Z,3.70
2023-10-17T00:45:26.776Z,3.40
2023-10-17T00:46:36.590Z,3.30
2023-10-17T00:47:26.725Z,3.40
2023-10-17T00:48:26.738Z,3.30
2023-10-17T00:49:26.714Z,3.30
2023-10-17T00:50:26.671Z,3.40
2023-10-17T00:51:26.707Z,3.20
2023-10-17T00:52:26.600Z,3.50
2023-10-17T00:53:26.624Z,3.30
2023-10-17T00:54:26.893Z,3.50
2023-10-17T00:55:26.623Z,3.30
2023-10-17T00:56:26.559Z,3.60
2023-10-17T00:57:26.594Z,3.50
2023-10-17T00:58:26.544Z,3.70
2023-10-17T00:59:26.604Z,4.00
2023-10-17T01:00:26.542Z,3.50
2023-10-17T01:01:26.605Z,3.70
2023-10-17T01:02:26.561Z,3.50
2023-10-17T01:03:26.625Z,3.50
2023-10-17T01:04:26.712Z,3.60
2023-10-17T01:05:26.489Z,3.70
2023-10-17T01:06:26.495Z,3.60
2023-10-17T01:07:26.430Z,3.20
2023-10-17T01:08:26.403Z,3.40
2023-10-17T01:09:26.443Z,3.50
2023-10-17T01:10:26.407Z,3.60
2023-10-17T01:11:26.378Z,3.70
2023-10-17T01:12:26.371Z,3.50
2023-10-17T01:13:26.406Z,3.10
2023-10-17T01:14:26.469Z,3.70
2023-10-17T01:15:26.434Z,3.00
2023-10-17T01:16:26.361Z,3.30
2023-10-17T01:17:26.303Z,3.80
2023-10-17T01:18:26.411Z,3.40
2023-10-17T01:19:26.303Z,3.10
2023-10-17T01:20:26.245Z,3.70
2023-10-17T01:21:26.291Z,3.30
2023-10-17T01:22:26.214Z,3.10
2023-10-17T01:23:26.224Z,3.30
2023-10-17T01:24:26.503Z,3.40
2023-10-17T01:25:26.277Z,3.70
2023-10-17T01:26:26.225Z,3.00
2023-10-17T01:27:26.222Z,3.50
2023-10-17T01:28:26.161Z,3.40
2023-10-17T01:29:26.155Z,3.90
2023-10-17T01:30:26.150Z,3.20
2023-10-17T01:31:26.225Z,3.60
2023-10-17T01:32:26.114Z,3.20
2023-10-17T01:33:26.220Z,3.60
2023-10-17T01:34:26.182Z,3.20
2023-10-17T01:35:26.084Z,3.30
2023-10-17T01:36:26.143Z,3.70
2023-10-17T01:37:26.043Z,3.60
2023-10-17T01:38:26.036Z,3.60
2023-10-17T01:39:26.086Z,3.70
2023-10-17T01:40:25.966Z,3.30
2023-10-17T01:41:26.044Z,3.80
2023-10-17T01:42:25.967Z,3.50
2023-10-17T01:43:26.022Z,3.70
2023-10-17T01:44:26.256Z,3.40
2023-10-17T01:45:26.003Z,3.80
2023-10-17T01:46:26.045Z,4.10
2023-10-17T01:47:25.915Z,3.70
2023-10-17T01:48:26.006Z,3.80
2023-10-17T01:49:25.886Z,3.70
2023-10-17T01:50:25.963Z,3.50
2023-10-17T01:51:26.069Z,3.30
2023-10-17T01:52:25.851Z,3.70
2023-10-17T01:53:25.832Z,3.70
2023-10-17T01:54:25.935Z,3.50
2023-10-17T01:55:25.817Z,3.70
2023-10-17T01:56:26.944Z,3.50
2023-10-17T01:57:25.791Z,3.80
2023-10-17T01:58:25.793Z,3.50
2023-10-17T01:59:25.725Z,3.50
2023-10-17T02:00:25.835Z,3.40
2023-10-17T02:01:26.352Z,3.70
2023-10-17T02:02:25.751Z,4.40
2023-10-17T02:03:25.742Z,3.60
2023-10-17T02:04:25.956Z,3.90
2023-10-17T02:05:25.711Z,3.50
2023-10-17T02:06:25.686Z,3.30
2023-10-17T02:07:25.671Z,3.70
2023-10-17T02:08:25.630Z,3.70
2023-10-17T02:09:26.068Z,3.60
2023-10-17T02:10:25.633Z,3.60
2023-10-17T02:11:25.589Z,3.80
2023-10-17T02:12:25.657Z,4.10
2023-10-17T02:13:25.587Z,3.70
2023-10-17T02:14:25.647Z,3.80
2023-10-17T02:15:25.692Z,3.50
2023-10-17T02:16:25.692Z,3.70
2023-10-17T02:17:25.543Z,3.80
2023-10-17T02:18:25.647Z,3.60
2023-10-17T02:19:25.484Z,3.80
2023-10-17T02:20:25.488Z,3.60
2023-10-17T02:21:25.482Z,3.60
2023-10-17T02:22:25.429Z,3.60
2023-10-17T02:23:25.502Z,3.60
2023-10-17T02:24:25.522Z,3.60
2023-10-17T02:25:25.419Z,3.50
2023-10-17T02:26:25.376Z,3.70
2023-10-17T02:27:25.442Z,3.80
2023-10-17T02:28:25.353Z,3.40
2023-10-17T02:29:25.379Z,4.00
2023-10-17T02:30:25.373Z,3.50
2023-10-17T02:31:25.411Z,3.60
2023-10-17T02:32:25.335Z,4.00
2023-10-17T02:33:25.364Z,3.70
2023-10-17T02:34:25.266Z,3.50
2023-10-17T02:35:25.328Z,3.70
2023-10-17T02:36:25.390Z,3.60
2023-10-17T02:37:25.264Z,3.60
2023-10-17T02:38:25.253Z,3.80
2023-10-17T02:39:25.317Z,3.80
2023-10-17T02:40:25.233Z,3.70
2023-10-17T02:41:25.230Z,3.60
2023-10-17T02:42:25.235Z,3.40
2023-10-17T02:43:25.182Z,3.80
2023-10-17T02:44:25.158Z,3.70
2023-10-17T02:45:25.224Z,3.90
2023-10-17T02:46:25.142Z,3.60
2023-10-17T02:47:25.153Z,3.70
2023-10-17T02:48:25.398Z,3.40
2023-10-17T02:49:25.134Z,4.10
2023-10-17T02:50:25.074Z,3.60
2023-10-17T02:51:25.109Z,4.00
2023-10-17T02:52:25.038Z,3.80
2023-10-17T02:53:25.051Z,3.50
2023-10-17T02:54:25.094Z,3.60
2023-10-17T02:55:25.098Z,3.60
2023-10-17T02:56:25.007Z,4.00
2023-10-17T02:57:25.107Z,4.20
2023-10-17T02:58:24.971Z,3.90
2023-10-17T02:59:24.992Z,3.70
2023-10-17T03:00:24.977Z,3.40
2023-10-17T03:01:25.029Z,3.90
2023-10-17T03:02:24.933Z,3.80
2023-10-17T03:03:24.998Z,4.00
2023-10-17T03:04:25.194Z,3.60
2023-10-17T03:05:24.894Z,4.00
2023-10-17T03:06:24.919Z,3.70
2023-10-17T03:07:24.913Z,4.00
2023-10-17T03:08:24.824Z,4.50
2023-10-17T03:09:25.202Z,4.30
2023-10-17T03:10:24.844Z,4.10
2023-10-17T03:11:24.829Z,3.90
2023-10-17T03:12:24.875Z,3.80
2023-10-17T03:13:25.149Z,4.00
2023-10-17T03:14:24.757Z,4.10
2023-10-17T03:15:24.803Z,4.20
2023-10-17T03:16:24.756Z,3.90
2023-10-17T03:17:24.782Z,4.10
2023-10-17T03:18:24.746Z,4.00
2023-10-17T03:19:24.745Z,4.40
2023-10-17T03:20:24.707Z,4.00
2023-10-17T03:21:24.728Z,3.90
2023-10-17T03:22:24.652Z,4.00
2023-10-17T03:23:24.653Z,3.80
2023-10-17T03:24:24.699Z,4.10
2023-10-17T03:25:24.665Z,4.40
2023-10-17T03:26:24.595Z,4.40
2023-10-17T03:27:24.733Z,3.90
2023-10-17T03:28:24.568Z,4.10
2023-10-17T03:29:24.601Z,4.00
2023-10-17T03:30:24.629Z,4.20
2023-10-17T03:31:24.649Z,4.00
2023-10-17T03:32:24.737Z,4.00
2023-10-17T03:33:24.594Z,3.70
2023-10-17T03:34:24.520Z,4.20
2023-10-17T03:35:24.504Z,4.10
2023-10-17T03:36:24.518Z,3.90
2023-10-17T03:37:24.486Z,4.20
2023-10-17T03:38:24.476Z,3.60
2023-10-17T03:39:24.479Z,3.90
2023-10-17T03:40:24.413Z,3.80
2023-10-17T03:41:24.429Z,4.10
2023-10-17T03:42:24.412Z,3.60
2023-10-17T03:43:24.392Z,4.00
2023-10-17T03:44:24.405Z,4.10
2023-10-17T03:45:24.410Z,3.40
2023-10-17T03:46:24.386Z,3.90
2023-10-17T03:47:24.349Z,4.00
2023-10-17T03:48:24.396Z,4.00
2023-10-17T03:49:24.324Z,3.70
2023-10-17T03:50:24.324Z,3.70
2023-10-17T03:51:24.352Z,4.10
2023-10-17T03:52:24.329Z,3.70
2023-10-17T03:53:24.253Z,4.10
2023-10-17T03:54:24.380Z,3.60
2023-10-17T03:55:24.259Z,3.90
2023-10-17T03:56:24.241Z,3.90
2023-10-17T03:57:24.235Z,3.80
2023-10-17T03:58:24.199Z,4.10
2023-10-17T03:59:24.188Z,3.70
2023-10-17T04:00:24.176Z,3.90
2023-10-17T04:01:24.219Z,3.60
2023-10-17T04:02:24.179Z,3.60
2023-10-17T04:03:24.188Z,3.90
2023-10-17T04:04:27.556Z,3.60
2023-10-17T04:05:24.124Z,3.80
2023-10-17T04:06:24.139Z,4.20
2023-10-17T04:07:24.122Z,4.00
2023-10-17T04:08:24.051Z,3.80
2023-10-17T04:09:24.185Z,3.90
2023-10-17T04:10:24.024Z,4.00
2023-10-17T04:11:24.047Z,3.70
2023-10-17T04:12:24.082Z,3.80
2023-10-17T04:13:24.012Z,4.00
2023-10-17T04:14:23.986Z,4.10
2023-10-17T04:15:24.026Z,3.90
2023-10-17T04:16:23.964Z,4.10
2023-10-17T04:17:23.954Z,3.90
2023-10-17T04:18:24.145Z,4.00
2023-10-17T04:19:23.991Z,4.20
2023-10-17T04:20:23.901Z,4.10
2023-10-17T04:21:23.923Z,3.80
2023-10-17T04:22:23.873Z,3.90
2023-10-17T04:23:23.914Z,4.20
2023-10-17T04:24:23.872Z,3.70
2023-10-17T04:25:23.888Z,3.60
2023-10-17T04:26:23.801Z,3.90
2023-10-17T04:27:24.180Z,3.90
2023-10-17T04:28:23.805Z,3.90
2023-10-17T04:29:23.811Z,3.80
2023-10-17T04:30:23.798Z,4.10
2023-10-17T04:31:23.867Z,3.80
2023-10-17T04:32:23.739Z,4.00
2023-10-17T04:33:23.791Z,4.20
2023-10-17T04:34:23.747Z,3.70
2023-10-17T04:35:23.716Z,3.70
2023-10-17T04:36:23.697Z,4.30
2023-10-17T04:37:23.688Z,4.30
2023-10-17T04:38:23.670Z,3.90
2023-10-17T04:39:23.693Z,4.40
2023-10-17T04:40:23.647Z,4.30
2023-10-17T04:41:23.648Z,4.20
2023-10-17T04:42:23.677Z,4.20
2023-10-17T04:43:23.620Z,3.90
2023-10-17T04:44:23.587Z,4.00
2023-10-17T04:45:23.594Z,4.40
2023-10-17T04:46:23.606Z,4.00
2023-10-17T04:47:23.603Z,4.00
2023-10-17T04:48:23.623Z,3.90
2023-10-17T04:49:23.539Z,4.00
2023-10-17T04:50:23.502Z,4.40
2023-10-17T04:51:23.541Z,4.20
2023-10-17T04:52:23.512Z,4.30
2023-10-17T04:53:23.499Z,4.60
2023-10-17T04:54:23.490Z,4.50
2023-10-17T04:55:23.492Z,4.90
2023-10-17T04:56:23.435Z,4.50
2023-10-17T04:57:23.475Z,4.40
2023-10-17T04:58:23.444Z,4.70
2023-10-17T04:59:23.402Z,3.90
2023-10-17T05:00:23.425Z,4.20
2023-10-17T05:01:23.448Z,4.50
2023-10-17T05:02:23.455Z,4.30
2023-10-17T05:03:23.814Z,4.50
2023-10-17T05:04:23.438Z,4.20
2023-10-17T05:05:23.323Z,4.30
2023-10-17T05:06:23.308Z,4.20
2023-10-17T05:07:23.317Z,4.50
2023-10-17T05:08:23.250Z,4.30
2023-10-17T05:09:23.349Z,4.50
2023-10-17T05:10:23.280Z,4.60
2023-10-17T05:11:23.250Z,4.50
2023-10-17T05:12:23.257Z,4.10
2023-10-17T05:13:23.266Z,4.40
2023-10-17T05:14:23.205Z,4.00
2023-10-17T05:15:23.264Z,4.00
2023-10-17T05:16:23.203Z,4.00
2023-10-17T05:17:23.214Z,4.40
2023-10-17T05:18:23.266Z,4.90
2023-10-17T05:19:23.176Z,4.30
2023-10-17T05:20:23.132Z,4.60
2023-10-17T05:21:23.223Z,5.00
2023-10-17T05:22:23.096Z,4.50
2023-10-17T05:23:23.114Z,4.50
2023-10-17T05:24:23.096Z,4.40
2023-10-17T05:25:23.104Z,4.70
2023-10-17T05:26:23.049Z,4.90
2023-10-17T05:27:23.091Z,4.70
2023-10-17T05:28:23.011Z,4.70
2023-10-17T05:29:23.034Z,4.60
2023-10-17T05:30:23.066Z,4.70
2023-10-17T05:31:23.082Z,5.10
2023-10-17T05:32:22.958Z,4.80
2023-10-17T05:33:23.028Z,4.90
2023-10-17T05:34:22.912Z,6.10
2023-10-17T05:35:22.980Z,6.00
2023-10-17T05:36:22.931Z,6.00
2023-10-17T05:37:22.915Z,5.50
2023-10-17T05:38:22.878Z,5.10
2023-10-17T05:39:22.953Z,5.00
2023-10-17T05:40:22.862Z,5.20
2023-10-17T05:41:22.894Z,4.90
2023-10-17T05:42:22.831Z,4.80
2023-10-17T05:43:22.834Z,5.10
2023-10-17T05:44:22.803Z,5.10
2023-10-17T05:45:23.749Z,4.70
2023-10-17T05:46:22.834Z,4.80
2023-10-17T05:47:22.785Z,4.30
2023-10-17T05:48:22.811Z,4.90
2023-10-17T05:49:22.778Z,6.00
2023-10-17T05:50:22.753Z,7.30
2023-10-17T05:51:22.807Z,8.00
2023-10-17T05:52:22.701Z,6.10
2023-10-17T05:53:22.716Z,5.20
2023-10-17T05:54:47.290Z,5.40
2023-10-17T05:55:28.945Z,5.70
2023-10-17T05:56:22.657Z,5.10
2023-10-17T05:57:22.724Z,5.10
2023-10-17T05:58:22.614Z,4.20
2023-10-17T05:59:23.575Z,4.60
2023-10-17T06:00:22.617Z,4.00
2023-10-17T06:01:22.734Z,4.30
2023-10-17T06:02:22.633Z,4.10
2023-10-17T06:03:22.722Z,4.10
2023-10-17T06:04:22.749Z,4.60
2023-10-17T06:05:22.566Z,3.70
2023-10-17T06:06:31.955Z,4.20
2023-10-17T06:07:22.630Z,4.50
2023-10-17T06:08:22.493Z,4.30
2023-10-17T06:09:22.531Z,4.00
2023-10-17T06:10:22.496Z,4.10
2023-10-17T06:11:22.485Z,4.20
2023-10-17T06:12:22.510Z,4.00
2023-10-17T06:13:22.721Z,4.10
2023-10-17T06:14:22.428Z,4.00
2023-10-17T06:15:22.459Z,3.80
2023-10-17T06:16:22.403Z,4.10
2023-10-17T06:17:22.439Z,4.30
2023-10-17T06:18:22.463Z,3.80
2023-10-17T06:19:22.841Z,4.30
2023-10-17T06:20:22.339Z,4.40
2023-10-17T06:21:22.371Z,3.70
2023-10-17T06:22:22.326Z,4.20
2023-10-17T06:23:22.351Z,4.40
2023-10-17T06:24:22.365Z,4.10
2023-10-17T06:25:22.306Z,4.20
2023-10-17T06:26:22.252Z,4.10
2023-10-17T06:27:22.325Z,4.10
2023-10-17T06:28:22.228Z,4.40
2023-10-17T06:29:22.307Z,3.90
2023-10-17T06:30:22.303Z,3.90
2023-10-17T06:31:22.258Z,4.30
2023-10-17T06:32:22.211Z,3.70
2023-10-17T06:33:22.238Z,3.80
2023-10-17T06:34:22.277Z,3.80
2023-10-17T06:35:22.461Z,4.20
2023-10-17T06:36:22.180Z,4.30
2023-10-17T06:37:22.153Z,4.20
2023-10-17T06:38:22.150Z,3.90
2023-10-17T06:39:22.111Z,4.10
2023-10-17T06:40:22.125Z,4.40
2023-10-17T06:41:22.061Z,3.80
2023-10-17T06:42:22.112Z,4.60
2023-10-17T06:43:22.074Z,4.20
2023-10-17T06:44:22.059Z,4.10
2023-10-17T06:45:22.048Z,4.30
2023-10-17T06:46:22.031Z,4.00
2023-10-17T06:47:21.994Z,4.10
2023-10-17T06:48:22.057Z,4.20
2023-10-17T06:49:21.960Z,4.00
2023-10-17T06:50:21.966Z,4.20
2023-10-17T06:51:22.118Z,4.20
2023-10-17T06:52:21.938Z,4.40
2023-10-17T06:53:21.907Z,4.10
2023-10-17T06:54:22.014Z,4.00
2023-10-17T06:55:21.895Z,3.90
2023-10-17T06:56:21.902Z,4.00
2023-10-17T06:57:22.077Z,4.60
2023-10-17T06:58:22.970Z,4.30
2023-10-17T06:59:21.830Z,3.90
2023-10-17T07:00:21.880Z,4.30
2023-10-17T07:01:21.860Z,4.40
2023-10-17T07:02:21.893Z,4.80
2023-10-17T07:03:21.865Z,4.60
2023-10-17T07:04:21.894Z,4.50
2023-10-17T07:05:21.759Z,4.30
2023-10-17T07:06:21.824Z,4.20
2023-10-17T07:07:21.742Z,4.10
2023-10-17T07:08:21.732Z,4.10
2023-10-17T07:09:21.720Z,4.30
2023-10-17T07:10:21.714Z,4.60
2023-10-17T07:11:21.737Z,4.30
2023-10-17T07:12:21.724Z,4.50
2023-10-17T07:13:21.661Z,4.60
2023-10-17T07:14:21.669Z,4.90
2023-10-17T07:15:21.663Z,4.90
2023-10-17T07:16:21.700Z,4.70
2023-10-17T07:17:21.626Z,4.50
2023-10-17T07:18:21.748Z,4.90
2023-10-17T07:19:21.714Z,4.70
2023-10-17T07:20:21.580Z,5.10
2023-10-17T07:21:21.568Z,4.80
2023-10-17T07:22:21.556Z,5.10
2023-10-17T07:23:21.503Z,4.90
2023-10-17T07:24:21.577Z,5.20
2023-10-17T07:25:21.522Z,4.70
2023-10-17T07:26:21.491Z,4.80
2023-10-17T07:27:21.525Z,4.90
2023-10-17T07:28:21.464Z,5.20
2023-10-17T07:29:21.443Z,4.80
2023-10-17T07:30:21.588Z,4.60
2023-10-17T07:31:21.522Z,5.20
2023-10-17T07:32:21.436Z,5.10
2023-10-17T07:33:21.493Z,5.00
2023-10-17T07:34:21.418Z,5.30
2023-10-17T07:35:21.376Z,5.50
2023-10-17T07:36:21.421Z,5.00
2023-10-17T07:37:21.320Z,5.40
2023-10-17T07:38:21.356Z,5.80
2023-10-17T07:39:21.370Z,5.70
2023-10-17T07:40:21.437Z,5.80
2023-10-17T07:41:21.266Z,5.90
2023-10-17T07:42:21.378Z,5.50
2023-10-17T07:43:21.252Z,5.60
2023-10-17T07:44:21.317Z,5.30
2023-10-17T07:45:21.292Z,5.60
2023-10-17T07:46:21.414Z,5.40
2023-10-17T07:47:21.331Z,5.00
2023-10-17T07:48:21.287Z,4.90
2023-10-17T07:49:21.154Z,5.10
2023-10-17T07:50:21.212Z,5.20
2023-10-17T07:51:21.211Z,5.40
2023-10-17T07:52:21.136Z,5.10
2023-10-17T07:53:21.126Z,5.20
2023-10-17T07:54:21.171Z,5.30
2023-10-17T07:55:21.096Z,5.10
2023-10-17T07:56:21.109Z,5.10
2023-10-17T07:57:21.163Z,6.80
2023-10-17T07:58:21.081Z,5.50
2023-10-17T07:59:21.052Z,4.60
2023-10-17T08:00:21.067Z,5.40
2023-10-17T08:01:21.034Z,4.70
2023-10-17T08:02:21.061Z,4.70
2023-10-17T08:03:21.093Z,4.80
2023-10-17T08:04:21.116Z,5.20
2023-10-17T08:05:21.002Z,4.80
2023-10-17T08:06:20.973Z,4.90
2023-10-17T08:07:20.962Z,5.00
2023-10-17T08:08:20.938Z,5.30
2023-10-17T08:09:29.548Z,4.80
2023-10-17T08:10:20.933Z,4.90
2023-10-17T08:11:20.887Z,5.20
2023-10-17T08:12:20.957Z,5.10
2023-10-17T08:13:20.852Z,5.40
2023-10-17T08:14:20.894Z,5.30
2023-10-17T08:15:21.036Z,5.50
2023-10-17T08:16:20.854Z,6.40
2023-10-17T08:17:20.815Z,6.70
2023-10-17T08:18:21.044Z,5.60
2023-10-17T08:19:20.963Z,6.10
2023-10-17T08:20:20.799Z,5.60
2023-10-17T08:21:20.817Z,5.30
2023-10-17T08:22:20.763Z,5.60
2023-10-17T08:23:20.733Z,5.20
2023-10-17T08:24:20.798Z,5.20
2023-10-17T08:25:21.533Z,5.60
2023-10-17T08:26:20.750Z,5.50
2023-10-17T08:27:20.697Z,5.40
2023-10-17T08:28:20.706Z,5.40
2023-10-17T08:29:20.691Z,5.80
2023-10-17T08:30:33.684Z,5.10
2023-10-17T08:31:20.686Z,5.50
2023-10-17T08:32:20.631Z,5.70
2023-10-17T08:33:20.678Z,5.40
2023-10-17T08:34:20.619Z,5.40
2023-10-17T08:35:20.596Z,5.30
2023-10-17T08:36:20.609Z,5.60
2023-10-17T08:37:20.564Z,5.60
2023-10-17T08:38:20.561Z,5.40
2023-10-17T08:39:20.559Z,5.80
2023-10-17T08:40:21.216Z,5.40
2023-10-17T08:41:20.500Z,5.50
2023-10-17T08:42:20.530Z,5.10
2023-10-17T08:43:20.483Z,5.20
2023-10-17T08:44:20.474Z,5.60
2023-10-17T08:45:20.517Z,5.20
2023-10-17T08:46:20.481Z,5.70
2023-10-17T08:47:20.402Z,5.20
2023-10-17T08:48:20.485Z,5.50
2023-10-17T08:49:20.374Z,5.30
2023-10-17T08:50:20.421Z,6.00
2023-10-17T08:51:28.935Z,5.80
2023-10-17T08:52:20.411Z,5.40
2023-10-17T08:53:20.353Z,6.00
2023-10-17T08:54:20.367Z,5.40
2023-10-17T08:55:20.315Z,5.50
2023-10-17T08:56:20.320Z,5.30
2023-10-17T08:57:20.330Z,5.10
2023-10-17T08:58:20.319Z,5.30
2023-10-17T08:59:20.239Z,4.60
2023-10-17T09:00:20.286Z,5.40
2023-10-17T09:01:20.277Z,5.20
2023-10-17T09:02:20.235Z,6.60
2023-10-17T09:03:20.285Z,6.40
2023-10-17T09:04:20.251Z,6.90
2023-10-17T09:05:20.184Z,7.10
2023-10-17T09:06:20.378Z,6.40
2023-10-17T09:07:20.216Z,5.80
2023-10-17T09:08:20.192Z,5.90
2023-10-17T09:09:20.234Z,5.80
2023-10-17T09:10:20.165Z,5.60
2023-10-17T09:11:20.107Z,5.30
2023-10-17T09:12:20.178Z,5.90
2023-10-17T09:13:20.126Z,5.00
2023-10-17T09:14:20.106Z,4.80
2023-10-17T09:15:20.110Z,5.90
2023-10-17T09:16:20.062Z,5.00
2023-10-17T09:17:20.012Z,4.70
2023-10-17T09:18:20.060Z,5.10
2023-10-17T09:19:20.023Z,5.00
2023-10-17T09:20:20.036Z,5.10
2023-10-17T09:21:19.987Z,4.80
2023-10-17T09:22:19.987Z,5.50
2023-10-17T09:23:19.979Z,4.70
2023-10-17T09:24:19.969Z,5.10
2023-10-17T09:25:19.937Z,5.50
2023-10-17T09:26:19.939Z,5.60
2023-10-17T09:27:20.080Z,5.40
2023-10-17T09:28:19.892Z,5.40
2023-10-17T09:29:19.888Z,5.30
2023-10-17T09:30:19.922Z,5.50
2023-10-17T09:31:19.902Z,5.50
2023-10-17T09:32:19.866Z,4.80
2023-10-17T09:33:19.900Z,5.10
2023-10-17T09:34:19.854Z,5.20
2023-10-17T09:35:19.801Z,5.30
2023-10-17T09:36:19.970Z,4.90
2023-10-17T09:37:19.818Z,4.60
2023-10-17T09:38:19.787Z,5.10
2023-10-17T09:39:28.437Z,4.60
2023-10-17T09:40:19.937Z,5.80
2023-10-17T09:41:20.408Z,5.20
2023-10-17T09:42:19.745Z,5.50
2023-10-17T09:43:19.780Z,5.00
2023-10-17T09:44:19.761Z,4.80
2023-10-17T09:46:19.815Z,4.80
2023-10-17T09:47:19.727Z,5.30
2023-10-17T09:48:19.902Z,5.80
2023-10-17T09:49:19.728Z,5.30
2023-10-17T09:50:19.657Z,4.80
2023-10-17T09:51:19.608Z,5.00
2023-10-17T09:52:19.590Z,4.80
2023-10-17T09:53:20.280Z,5.20
2023-10-17T09:54:19.638Z,4.90
2023-10-17T09:55:19.537Z,5.10
2023-10-17T09:56:19.522Z,5.00
2023-10-17T09:57:19.560Z,5.00
2023-10-17T09:58:19.581Z,5.60
2023-10-17T09:59:19.486Z,5.70
2023-10-17T10:00:19.555Z,5.00
2023-10-17T10:01:19.468Z,5.50
2023-10-17T10:02:19.518Z,5.10
2023-10-17T10:03:19.482Z,5.30
2023-10-17T10:04:19.778Z,5.60
2023-10-17T10:05:19.505Z,5.30
2023-10-17T10:06:19.477Z,4.60
2023-10-17T10:07:19.356Z,5.30
2023-10-17T10:08:19.367Z,4.50
2023-10-17T10:09:19.408Z,5.20
2023-10-17T10:10:19.332Z,4.90
2023-10-17T10:11:19.313Z,5.20
2023-10-17T10:12:19.561Z,4.80
2023-10-17T10:13:19.304Z,5.00
2023-10-17T10:14:19.314Z,5.00
2023-10-17T10:15:19.304Z,4.80
2023-10-17T10:16:19.357Z,4.60
2023-10-17T10:17:19.229Z,5.70
2023-10-17T10:18:19.262Z,5.30
2023-10-17T10:19:19.193Z,5.50
2023-10-17T10:20:19.245Z,5.40
2023-10-17T10:21:19.208Z,5.60
2023-10-17T10:22:19.181Z,5.30
2023-10-17T10:23:19.165Z,5.70
2023-10-17T10:24:19.446Z,5.60
2023-10-17T10:25:19.139Z,5.40
2023-10-17T10:26:19.150Z,4.90
2023-10-17T10:27:19.129Z,5.60
2023-10-17T10:28:19.125Z,4.90
2023-10-17T10:29:19.078Z,5.40
2023-10-17T10:30:19.326Z,5.50
2023-10-17T10:31:19.085Z,7.20
2023-10-17T10:32:19.061Z,9.70
2023-10-17T10:33:19.042Z,8.40
2023-10-17T10:34:19.047Z,8.70
2023-10-17T10:35:19.821Z,5.50
2023-10-17T10:36:19.042Z,4.70
2023-10-17T10:37:18.965Z,5.10
2023-10-17T10:38:18.996Z,5.10
2023-10-17T10:39:18.972Z,5.40
2023-10-17T10:40:19.105Z,5.10
2023-10-17T10:41:18.926Z,4.80
2023-10-17T10:42:18.973Z,4.80
2023-10-17T10:43:18.920Z,4.90
2023-10-17T10:44:18.938Z,5.40
2023-10-17T10:45:18.909Z,4.90
2023-10-17T10:46:21.172Z,5.70
2023-10-17T10:47:18.940Z,4.90
2023-10-17T10:48:19.229Z,5.10
2023-10-17T10:49:18.813Z,4.80
2023-10-17T10:50:18.843Z,5.00
2023-10-17T10:51:18.944Z,5.20
2023-10-17T10:52:18.821Z,4.90
2023-10-17T10:53:18.766Z,5.10
2023-10-17T10:54:18.805Z,5.10
2023-10-17T10:55:18.775Z,5.10
2023-10-17T10:56:18.738Z,4.60
2023-10-17T10:57:18.748Z,5.20
2023-10-17T10:58:18.725Z,4.70
2023-10-17T10:59:18.808Z,4.80
2023-10-17T11:00:18.749Z,5.20
2023-10-17T11:01:18.725Z,4.80
2023-10-17T11:02:18.653Z,5.00
2023-10-17T11:03:18.740Z,5.30
2023-10-17T11:04:18.803Z,4.90
2023-10-17T11:05:18.647Z,5.30
2023-10-17T11:06:18.705Z,4.80
2023-10-17T11:07:18.589Z,5.50
2023-10-17T11:08:18.582Z,5.20
2023-10-17T11:09:18.640Z,5.20
2023-10-17T11:10:18.526Z,5.10
2023-10-17T11:11:18.555Z,4.80
2023-10-17T11:12:18.538Z,5.00
2023-10-17T11:13:18.513Z,5.60
2023-10-17T11:14:18.553Z,4.90
2023-10-17T11:15:18.530Z,5.60
2023-10-17T11:16:18.482Z,5.60
2023-10-17T11:17:18.469Z,5.10
2023-10-17T11:18:18.487Z,5.30
2023-10-17T11:19:18.476Z,5.00
2023-10-17T11:20:18.445Z,5.10
2023-10-17T11:21:18.496Z,4.90
2023-10-17T11:22:18.398Z,5.00
2023-10-17T11:23:18.402Z,4.80
2023-10-17T11:24:18.399Z,5.10
2023-10-17T11:25:18.359Z,4.60
2023-10-17T11:26:27.518Z,5.20
2023-10-17T11:27:18.424Z,5.30
2023-10-17T11:28:18.286Z,4.80
2023-10-17T11:29:18.320Z,4.40
2023-10-17T11:30:18.324Z,5.10
2023-10-17T11:31:18.350Z,5.30
2023-10-17T11:32:18.258Z,4.70
2023-10-17T11:33:18.279Z,5.50
2023-10-17T11:34:18.284Z,5.10
2023-10-17T11:35:18.228Z,5.10
2023-10-17T11:36:18.226Z,4.90
2023-10-17T11:37:18.254Z,5.20
2023-10-17T11:38:18.192Z,5.20
2023-10-17T11:39:18.234Z,5.40
2023-10-17T11:40:18.186Z,5.80
2023-10-17T11:41:18.170Z,5.60
2023-10-17T11:42:18.177Z,5.30
2023-10-17T11:43:18.134Z,5.40
2023-10-17T11:44:18.120Z,5.70
2023-10-17T11:45:33.811Z,5.10
2023-10-17T11:46:18.130Z,5.70
2023-10-17T11:47:18.112Z,4.80
2023-10-17T11:48:18.085Z,4.80
2023-10-17T11:49:18.069Z,5.70
2023-10-17T11:50:18.083Z,5.20
2023-10-17T11:51:18.067Z,5.20
2023-10-17T11:52:17.986Z,5.00
2023-10-17T11:53:18.085Z,5.40
2023-10-17T11:54:32.561Z,5.20
2023-10-17T11:55:18.070Z,5.40
2023-10-17T11:56:17.958Z,5.40
2023-10-17T11:57:18.028Z,5.90
2023-10-17T11:58:17.939Z,5.50
2023-10-17T11:59:17.926Z,5.40
2023-10-17T12:00:17.978Z,5.40
2023-10-17T12:01:17.910Z,5.80
2023-10-17T12:02:17.905Z,5.10
2023-10-17T12:03:18.118Z,5.70
2023-10-17T12:04:17.900Z,5.00
2023-10-17T12:05:17.917Z,5.30
2023-10-17T12:06:17.859Z,5.20
2023-10-17T12:07:17.819Z,5.60
2023-10-17T12:08:17.815Z,5.40
2023-10-17T12:09:17.861Z,5.10
2023-10-17T12:10:17.783Z,5.50
2023-10-17T12:11:17.754Z,6.20
2023-10-17T12:12:17.750Z,5.80
2023-10-17T12:13:17.817Z,5.60
2023-10-17T12:14:17.700Z,5.80
2023-10-17T12:15:17.746Z,5.60
2023-10-17T12:16:18.460Z,5.50
2023-10-17T12:17:17.702Z,5.50
2023-10-17T12:18:17.718Z,5.40
2023-10-17T12:19:17.674Z,5.20
2023-10-17T12:20:17.625Z,5.50
2023-10-17T12:21:17.645Z,5.50
2023-10-17T12:22:17.672Z,5.90
2023-10-17T12:23:17.807Z,5.40
2023-10-17T12:24:17.636Z,5.80
2023-10-17T12:25:17.976Z,5.70
2023-10-17T12:26:17.558Z,5.60
2023-10-17T12:27:17.604Z,5.70
2023-10-17T12:28:17.568Z,6.00
2023-10-17T12:29:17.561Z,5.70
2023-10-17T12:30:17.820Z,5.30
2023-10-17T12:31:17.648Z,5.80
2023-10-17T12:32:17.470Z,6.10
2023-10-17T12:33:17.761Z,5.90
2023-10-17T12:34:18.129Z,5.70
2023-10-17T12:35:17.471Z,5.80
2023-10-17T12:36:17.414Z,5.80
2023-10-17T12:37:17.476Z,5.60
2023-10-17T12:38:17.394Z,5.50
2023-10-17T12:39:17.409Z,5.80
2023-10-17T12:40:18.214Z,6.00
2023-10-17T12:41:17.386Z,6.00
2023-10-17T12:42:17.380Z,6.00
2023-10-17T12:43:17.383Z,5.90
2023-10-17T12:44:17.309Z,5.90
2023-10-17T12:45:17.347Z,5.90
2023-10-17T12:46:17.376Z,6.20
2023-10-17T12:47:17.298Z,6.10
2023-10-17T12:48:17.368Z,6.20
2023-10-17T12:49:17.266Z,5.90
2023-10-17T12:50:17.285Z,6.00
2023-10-17T12:51:17.275Z,5.80
2023-10-17T12:52:17.268Z,6.00
2023-10-17T12:53:17.222Z,5.50
2023-10-17T12:54:17.224Z,6.10
2023-10-17T12:55:17.193Z,6.00
2023-10-17T12:56:17.174Z,5.70
2023-10-17T12:57:17.180Z,5.40
2023-10-17T12:58:17.121Z,6.20
2023-10-17T12:59:17.146Z,6.20
2023-10-17T13:00:17.154Z,6.30
2023-10-17T13:01:17.188Z,6.20
2023-10-17T13:02:17.081Z,5.60
2023-10-17T13:03:17.266Z,6.20
2023-10-17T13:04:17.258Z,6.10
2023-10-17T13:05:17.215Z,5.90
2023-10-17T13:06:17.025Z,5.90
2023-10-17T13:07:17.049Z,6.90
2023-10-17T13:08:16.976Z,6.10
2023-10-17T13:09:17.028Z,6.10
2023-10-17T13:10:17.015Z,5.60
2023-10-17T13:11:16.975Z,6.80
2023-10-17T13:12:17.658Z,6.10
2023-10-17T13:13:16.967Z,6.20
2023-10-17T13:14:16.919Z,5.70
2023-10-17T13:15:16.975Z,7.10
2023-10-17T13:16:17.002Z,6.40
2023-10-17T13:17:16.883Z,6.50
2023-10-17T13:18:16.905Z,6.30
2023-10-17T13:19:16.861Z,6.20